Time;durP1;ratioP1;P1;durP2;ratioP2;P2;SDS_P1;SDS_P2;PMS_P1;PMS_P2;Temp;Humidity;BMP_temperature;BMP_pressure;BME280_temperature;BME280_humidity;BME280_pressure;Samples;Min_cycle;Max_cycle;Signal;HPM_P1;HPM_P2
2022/10/05 00:00:19;;;;;;;6.85;6.15;;;;;;;9.46;100.00;99502.98;1751768;82;21028;-71
2022/10/05 00:02:48;;;;;;;14.33;6.72;;;;;;;9.41;100.00;99503.73;1751685;81;20892;-69
2022/10/05 00:05:30;;;;;;;11.00;7.50;;;;;;;9.41;100.00;99505.06;1752131;81;20972;-70
2022/10/05 00:08:05;;;;;;;9.18;6.92;;;;;;;9.31;100.00;99509.45;1752075;82;21127;-70
2022/10/05 00:10:32;;;;;;;16.07;8.10;;;;;;;9.38;100.00;99506.91;1751820;81;21025;-70
2022/10/05 00:12:59;;;;;;;9.08;7.10;;;;;;;9.50;100.00;99515.34;1751811;81;20956;-70
2022/10/05 00:15:26;;;;;;;7.45;6.28;;;;;;;9.43;100.00;99521.70;1751836;81;20979;-70
2022/10/05 00:17:55;;;;;;;7.35;6.47;;;;;;;9.40;100.00;99520.03;1752013;82;21383;-70
2022/10/05 00:20:24;;;;;;;11.12;7.25;;;;;;;9.41;100.00;99527.84;1751737;81;21230;-71
2022/10/05 00:22:57;;;;;;;12.28;7.37;;;;;;;9.21;100.00;-16677.57;1751802;81;21427;-71
2022/10/05 00:25:23;;;;;;;12.45;6.87;;;;;;;9.10;100.00;99530.59;1751891;81;20925;-70
2022/10/05 00:27:57;;;;;;;15.98;7.35;;;;;;;9.23;100.00;99537.47;1724413;81;20932;-70
2022/10/05 00:30:31;;;;;;;6.97;6.30;;;;;;;9.08;0.00;76942.13;1751828;81;20968;-70
2022/10/05 00:32:58;;;;;;;7.33;6.50;;;;;;;9.08;100.00;99538.05;1727294;81;21228;-71
2022/10/05 00:35:27;;;;;;;9.50;7.00;;;;;;;8.97;100.00;99545.65;1711466;83;21517;-71
2022/10/05 00:37:54;;;;;;;9.58;6.85;;;;;;;9.23;100.00;99547.67;1711389;83;20929;-70
2022/10/05 00:40:41;;;;;;;8.50;6.92;;;;;;;-93.79;60.94;77116.98;1711227;83;20893;-72
2022/10/05 00:43:17;;;;;;;9.88;6.92;;;;;;;9.10;100.00;99547.98;1711404;83;21033;-71
2022/10/05 00:46:09;;;;;;;10.05;7.65;;;;;;;9.33;100.00;99555.02;1711046;83;21240;-71
2022/10/05 00:48:49;;;;;;;11.03;7.12;;;;;;;85.74;0.00;121243.64;1711141;83;20917;-71
2022/10/05 00:51:29;;;;;;;13.68;7.83;;;;;;;-146.13;0.00;109725.75;1711263;83;20924;-70
2022/10/05 00:54:33;;;;;;;12.13;6.83;;;;;;;9.29;100.00;99563.82;1710990;82;21455;-71
2022/10/05 00:57:40;;;;;;;8.20;6.72;;;;;;;33.29;0.00;121243.64;1710390;83;20937;-71
2022/10/05 01:00:11;;;;;;;10.48;7.53;;;;;;;-146.13;0.00;109725.75;1663416;85;21412;-72
2022/10/05 01:03:00;;;;;;;8.68;7.05;;;;;;;;;;1641192;85;21012;-70
2022/10/05 01:05:59;;;;;;;7.65;6.85;;;;;;;-146.13;0.00;121003.23;1626944;88;20915;-70
2022/10/05 01:08:41;;;;;;;9.63;7.05;;;;;;;;;;1627725;88;21063;-70
2022/10/05 01:11:24;;;;;;;7.67;6.97;;;;;;;-146.13;0.00;121003.23;1626805;88;20944;-70
2022/10/05 01:14:17;;;;;;;9.98;7.17;;;;;;;-122.38;100.00;-21102.01;1626041;88;21471;-71
2022/10/05 01:17:15;;;;;;;9.40;6.87;;;;;;;-140.70;58.77;-17548.59;1626063;88;20908;-71
2022/10/05 01:19:58;;;;;;;7.83;7.12;;;;;;;-146.13;0.00;121242.73;1542984;92;21054;-70
2022/10/05 01:22:33;;;;;;;7.45;6.72;;;;;;;-146.04;1.71;-21105.12;1542848;92;21062;-71
2022/10/05 01:25:20;;;;;;;7.87;7.12;;;;;;;-144.81;100.00;-16676.12;1542908;92;21186;-72
2022/10/05 01:28:00;;;;;;;8.50;7.65;;;;;;;-146.13;100.00;121243.23;1558466;89;21383;-71
2022/10/05 01:30:27;;;;;;;9.18;7.00;;;;;;;-146.13;0.00;120712.97;1575755;89;20999;-70
2022/10/05 01:33:02;;;;;;;13.43;6.78;;;;;;;-142.06;100.00;121243.23;1544555;93;21671;-72
2022/10/05 01:35:52;;;;;;;11.12;7.12;;;;;;;-144.81;100.00;58803.44;1556882;91;21020;-71
2022/10/05 01:38:46;;;;;;;10.20;6.97;;;;;;;-146.14;0.00;121243.23;1618360;87;20912;-69
2022/10/05 01:41:48;;;;;;;6.83;6.22;;;;;;;-146.14;0.00;121243.77;1624549;86;21809;-71
2022/10/05 01:44:20;;;;;;;7.35;6.55;;;;;;;-146.14;0.00;121243.23;1655986;86;21644;-70
2022/10/05 01:47:02;;;;;;;9.55;7.60;;;;;;;-146.14;100.00;121243.23;1656018;86;20908;-70
2022/10/05 01:50:00;;;;;;;7.95;6.37;;;;;;;-146.13;100.00;121243.23;1592989;89;21005;-70
2022/10/05 01:52:56;;;;;;;9.10;7.22;;;;;;;-146.14;100.00;121243.23;1704762;84;21535;-70
2022/10/05 01:55:55;;;;;;;7.22;6.58;;;;;;;-146.14;100.00;121243.23;1704635;84;21240;-71
2022/10/05 01:58:49;;;;;;;8.23;5.97;;;;;;;-59.75;100.00;121244.83;1704994;84;20890;-70
2022/10/05 02:01:49;;;;;;;16.80;7.17;;;;;;;-145.71;100.00;121243.23;1704846;84;20890;-70
2022/10/05 02:04:27;;;;;;;10.32;7.20;;;;;;;-146.14;49.79;121243.23;1685921;84;20897;-70
2022/10/05 02:06:54;;;;;;;8.20;6.03;;;;;;;189.42;0.00;121243.64;1704661;84;21629;-71
2022/10/05 02:09:28;;;;;;;6.03;5.42;;;;;;;-146.13;0.00;86975.05;1704438;84;21930;-70
2022/10/05 02:12:04;;;;;;;7.00;6.30;;;;;;;-146.14;0.00;146182.61;1704577;84;20843;-69
2022/10/05 02:14:47;;;;;;;7.33;6.42;;;;;;;52.95;0.00;121243.64;1704853;84;21644;-70
2022/10/05 02:17:21;;;;;;;11.90;6.75;;;;;;;-146.13;0.00;121243.23;1703443;84;20941;-70
2022/10/05 02:19:57;;;;;;;8.00;5.97;;;;;;;-146.14;100.00;121243.23;1704790;84;20866;-70
2022/10/05 02:22:40;;;;;;;6.83;6.12;;;;;;;-146.14;100.00;121243.23;1704338;84;21886;-70
2022/10/05 02:25:19;;;;;;;10.23;6.33;;;;;;;-146.14;0.00;121243.23;1704788;84;20903;-69
2022/10/05 02:27:58;;;;;;;9.40;6.15;;;;;;;189.42;100.00;121520.61;1748371;82;20897;-70
2022/10/05 02:30:25;;;;;;;9.30;6.03;;;;;;;;;;1751674;82;20989;-71
2022/10/05 02:33:00;;;;;;;9.00;6.10;;;;;;;-146.13;0.00;121242.73;1751925;82;20948;-70
2022/10/05 02:35:27;;;;;;;10.30;5.70;;;;;;;-146.14;0.00;-12340.93;1751565;81;21335;-70
2022/10/05 02:38:15;;;;;;;11.22;6.40;;;;;;;-144.81;100.00;-16676.12;1751707;82;20968;-70
2022/10/05 02:41:06;;;;;;;8.65;5.72;;;;;;;-146.13;0.00;121243.11;1751742;82;20857;-70
2022/10/05 02:44:05;;;;;;;21.23;6.65;;;;;;;-146.13;0.00;-13393.88;1751829;81;21007;-70
2022/10/05 03:32:08;;;;;;;16.67;11.33;;;;;;;-146.14;100.00;121243.23;1832565;77;26513;-70
2022/10/05 03:37:35;;;;;;;9.35;7.62;;;;;;;-146.14;17.70;121000.37;1804180;78;21068;-71
2022/10/05 03:40:28;;;;;;;12.82;7.85;;;;;;;-146.14;100.00;121243.23;1821533;78;21247;-70
2022/10/05 03:43:32;;;;;;;12.53;7.53;;;;;;;-146.13;100.00;121243.23;1820008;78;20869;-71
2022/10/05 04:35:26;;;;;;;12.85;6.08;;;;;;;-146.13;0.00;60156.93;1820123;78;20898;-68
2022/10/05 05:56:36;;;;;;;9.65;5.78;;;;;;;-146.14;100.00;121243.23;1819362;79;21391;-73
2022/10/05 06:12:38;;;;;;;15.55;7.55;;;;;;;-146.14;100.00;121243.23;1775711;78;20919;-69
2022/10/05 06:15:26;;;;;;;9.60;5.08;;;;;;;7.25;0.00;77300.91;1811818;79;21887;-70
2022/10/05 06:18:14;;;;;;;9.55;5.70;;;;;;;-146.14;100.00;121243.23;1808472;78;26178;-72
2022/10/05 06:20:56;;;;;;;6.83;5.17;;;;;;;-146.14;100.00;121243.23;1818700;79;25673;-70
2022/10/05 06:24:28;;;;;;;6.85;5.37;;;;;;;189.42;0.00;121243.64;1818808;79;21485;-70
2022/10/05 07:16:15;;;;;;;9.20;5.87;;;;;;;7.25;100.00;-16621.84;1819492;79;20877;-72
2022/10/05 07:19:56;;;;;;;9.40;7.85;;;;;;;-146.13;0.00;-16621.84;1818889;79;21238;-70
2022/10/05 07:24:03;;;;;;;11.33;7.00;;;;;;;7.25;100.00;121243.23;1819559;79;20913;-73
2022/10/05 07:27:01;;;;;;;7.17;5.15;;;;;;;-146.14;0.00;121243.64;1736327;81;20961;-70
2022/10/05 07:29:58;;;;;;;16.17;6.47;;;;;;;-146.14;0.00;121243.11;1691392;84;21018;-71
2022/10/05 08:08:43;;;;;;;6.97;4.75;;;;;;;7.25;100.00;99714.98;1693934;84;21010;-71
2022/10/05 08:12:49;;;;;;;5.95;4.72;;;;;;;-100.33;100.00;121243.64;1753202;81;21156;-72
2022/10/05 08:26:03;;;;;;;5.58;2.90;;;;;;;-146.13;0.00;99714.98;1752371;81;20925;-72
2022/10/05 09:00:15;;;;;;;4.55;2.83;;;;;;;7.25;100.00;99714.98;1752390;81;20902;-71
2022/10/05 09:06:45;;;;;;;10.38;3.22;;;;;;;-100.33;0.00;121243.64;1722252;83;20893;-69
2022/10/05 09:10:48;;;;;;;7.60;3.08;;;;;;;-146.13;100.00;121243.23;1787321;80;20882;-71
2022/10/05 09:18:32;;;;;;;8.15;3.52;;;;;;;-145.54;0.00;121313.62;1717894;82;21152;-69
2022/10/05 09:35:06;;;;;;;6.43;4.40;;;;;;;7.25;100.00;99714.98;1717068;82;21045;-68
2022/10/05 09:38:09;;;;;;;23.47;3.62;;;;;;;7.25;100.00;99714.98;1717086;83;20991;-69
2022/10/05 09:45:35;;;;;;;10.75;2.77;;;;;;;;;;1717546;83;20924;-69
2022/10/05 09:49:05;;;;;;;5.75;2.47;;;;;;;-146.14;100.00;121243.23;1763665;80;21391;-70
2022/10/05 14:23:12;;;;;;;3.40;1.95;;;;;;;-146.14;100.00;121243.23;1786323;80;21154;-75
2022/10/05 14:25:52;;;;;;;16.87;13.43;;;;;;;16.42;85.47;100050.52;1787432;80;20932;-73
2022/10/05 14:33:55;;;;;;;21.55;15.68;;;;;;;16.42;85.47;100050.52;1787142;80;20912;-73
2022/10/05 14:38:00;;;;;;;61.40;34.40;;;;;;;-145.46;0.00;121243.64;1787075;80;21425;-73
2022/10/05 15:04:29;;;;;;;26.10;17.42;;;;;;;16.42;0.00;100050.52;1787568;80;20876;-74
2022/10/05 15:07:16;;;;;;;25.23;22.62;;;;;;;;;;1800149;79;21574;-75
2022/10/05 15:10:37;;;;;;;9.40;8.03;;;;;;;-146.13;85.47;159357.25;1799521;79;20850;-75
2022/10/05 15:13:28;;;;;;;10.13;7.12;;;;;;;-146.13;0.00;76524.59;1811590;78;21367;-75
2022/10/05 15:16:04;;;;;;;7.03;6.33;;;;;;;-145.46;0.00;121243.64;1819463;79;21014;-76
2022/10/05 15:18:47;;;;;;;11.35;8.83;;;;;;;-146.13;0.00;132202.75;1819084;79;20955;-76
2022/10/05 15:21:47;;;;;;;15.28;8.10;;;;;;;-144.81;62.97;100050.52;1819220;79;20900;-75
2022/10/05 15:24:30;;;;;;;14.05;8.15;;;;;;;-145.46;63.09;100050.52;1818970;79;20864;-75
2022/10/05 15:27:01;;;;;;;12.53;7.65;;;;;;;16.42;85.47;100050.52;1819116;79;20960;-75
2022/10/05 15:30:12;;;;;;;11.63;6.33;;;;;;;-145.46;85.47;100050.52;1819282;79;21542;-75
2022/10/05 15:32:55;;;;;;;9.85;6.75;;;;;;;-145.46;85.47;100050.52;1819628;79;20936;-76
2022/10/05 15:40:58;;;;;;;8.88;6.20;;;;;;;-145.46;85.47;100050.52;1812695;77;21238;-72
2022/10/05 15:44:12;;;;;;;26.20;15.18;;;;;;;16.42;85.47;100050.52;1819215;79;20834;-74
2022/10/05 15:46:46;;;;;;;26.80;19.75;;;;;;;16.42;85.47;100050.52;1782437;80;21007;-74
2022/10/05 15:49:56;;;;;;;12.05;9.03;;;;;;;-145.26;100.00;100069.30;1783324;80;20917;-74
2022/10/05 15:52:46;;;;;;;18.95;14.20;;;;;;;-145.26;100.00;100069.30;1819468;79;20932;-75
2022/10/05 15:55:35;;;;;;;24.35;15.05;;;;;;;-145.26;97.44;100069.30;1785225;80;21186;-76
2022/10/05 15:58:39;;;;;;;23.55;16.97;;;;;;;-145.26;97.44;100069.30;1785281;80;21387;-73
2022/10/05 16:01:33;;;;;;;56.58;36.45;;;;;;;-145.26;100.00;100069.30;1785650;80;21415;-75
2022/10/05 16:04:16;;;;;;;86.95;47.33;;;;;;;-145.26;100.00;100069.30;1785448;80;20979;-76
2022/10/05 16:10:15;;;;;;;130.67;68.37;;;;;;;14.00;100.00;100084.72;1785073;80;21278;-74
2022/10/05 16:13:03;;;;;;;105.80;54.85;;;;;;;13.63;100.00;100080.22;1785420;80;20920;-75
2022/10/05 16:15:41;;;;;;;92.00;47.95;;;;;;;-145.24;100.00;100080.22;1785363;80;20929;-75
2022/10/05 16:18:48;;;;;;;84.00;45.60;;;;;;;-145.24;100.00;100080.22;1785390;80;20971;-74
2022/10/05 16:26:30;;;;;;;63.63;33.38;;;;;;;13.63;100.00;100080.22;1784401;80;21026;-74
2022/10/05 16:38:37;;;;;;;15.28;8.28;;;;;;;13.63;100.00;100080.22;1785755;80;21230;-77
2022/10/05 16:42:04;;;;;;;9.58;6.90;;;;;;;13.63;100.00;100080.22;1785760;80;20869;-77
2022/10/05 16:45:22;;;;;;;9.25;6.83;;;;;;;-145.24;100.00;100080.22;1727554;80;20920;-74
2022/10/05 16:48:26;;;;;;;9.85;7.72;;;;;;;13.63;100.00;100080.22;1785674;80;20999;-76
2022/10/05 16:51:43;;;;;;;18.50;10.63;;;;;;;13.63;100.00;100080.22;1721068;83;20960;-74
2022/10/05 16:54:37;;;;;;;19.15;11.08;;;;;;;-145.24;100.00;100080.22;1733223;82;21487;-75
2022/10/05 16:59:41;;;;;;;15.20;8.88;;;;;;;13.63;100.00;100080.22;1712495;82;20933;-73
2022/10/05 17:02:33;;;;;;;21.70;11.48;;;;;;;13.63;100.00;100080.22;1754432;81;21015;-73
2022/10/05 17:05:21;;;;;;;22.37;12.40;;;;;;;13.63;100.00;100080.22;1782963;80;21487;-74
2022/10/05 17:08:48;;;;;;;21.95;14.70;;;;;;;13.63;100.00;100080.22;1819299;79;20984;-74
2022/10/05 17:11:56;;;;;;;24.80;15.53;;;;;;;-145.24;100.00;100080.22;1819169;79;21503;-74
2022/10/05 17:15:14;;;;;;;34.67;19.32;;;;;;;13.63;100.00;100080.22;1798690;78;20854;-75
2022/10/05 17:18:50;;;;;;;22.27;13.08;;;;;;;-145.24;100.00;100080.22;1822739;78;20928;-74
2022/10/05 17:25:42;;;;;;;16.30;11.22;;;;;;;13.63;100.00;100080.22;1819666;79;21302;-74
2022/10/05 17:28:40;;;;;;;15.13;9.93;;;;;;;-145.24;100.00;100080.22;1819580;79;20928;-75
2022/10/05 17:32:10;;;;;;;17.37;12.13;;;;;;;-145.24;100.00;100080.22;1752606;82;21199;-76
2022/10/05 18:01:06;;;;;;;20.97;12.50;;;;;;;13.63;100.00;100080.22;1650220;87;20903;-75
2022/10/05 18:03:50;;;;;;;28.12;15.32;;;;;;;13.63;100.00;100080.22;1650189;85;20931;-75
2022/10/05 18:07:22;;;;;;;26.52;14.53;;;;;;;13.63;100.00;100080.22;1650487;87;20958;-75
2022/10/05 18:10:16;;;;;;;28.12;17.75;;;;;;;13.63;100.00;100080.22;1650345;87;21460;-74
2022/10/05 18:13:33;;;;;;;29.45;14.15;;;;;;;-145.24;100.00;100080.22;1622754;88;21561;-74
2022/10/05 18:17:11;;;;;;;30.27;16.37;;;;;;;13.63;100.00;100080.22;1647756;85;21505;-77
2022/10/05 18:21:31;;;;;;;28.92;17.00;;;;;;;13.63;100.00;100080.22;1650771;87;21516;-76
2022/10/05 18:25:02;;;;;;;22.37;14.68;;;;;;;13.63;100.00;100080.22;1650045;87;21011;-73
2022/10/05 18:30:20;;;;;;;28.17;16.42;;;;;;;13.63;100.00;100080.22;1722144;83;21170;-79
2022/10/05 18:33:38;;;;;;;19.77;13.45;;;;;;;13.63;100.00;100080.22;1722671;83;20987;-76
2022/10/05 18:38:10;;;;;;;26.25;13.75;;;;;;;13.63;100.00;100080.22;1722395;83;20935;-75
2022/10/05 18:42:22;;;;;;;27.30;14.58;;;;;;;13.63;100.00;100080.22;1722656;83;20936;-74
2022/10/05 18:49:08;;;;;;;24.52;13.75;;;;;;;13.63;100.00;100080.22;1721567;83;21470;-73
2022/10/05 18:54:26;;;;;;;23.15;13.25;;;;;;;-145.24;100.00;100080.22;1722726;83;21513;-77
2022/10/05 18:59:45;;;;;;;34.85;17.30;;;;;;;13.63;100.00;100080.22;1722549;83;21007;-76
2022/10/05 19:07:59;;;;;;;31.73;18.50;;;;;;;13.63;100.00;100080.22;1722695;83;20943;-75
2022/10/05 19:14:37;;;;;;;28.10;16.37;;;;;;;-145.24;100.00;100080.22;1722523;83;20935;-75
2022/10/05 19:18:20;;;;;;;29.30;15.45;;;;;;;13.63;100.00;100080.22;1722653;83;20939;-74
2022/10/05 19:32:23;;;;;;;29.12;16.87;;;;;;;13.63;100.00;100080.22;1722449;83;21118;-75
2022/10/05 19:40:48;;;;;;;30.77;14.28;;;;;;;13.63;100.00;100080.22;1722165;82;20912;-77
2022/10/05 19:44:51;;;;;;;20.57;10.65;;;;;;;13.63;100.00;100080.22;1675355;84;21018;-77
2022/10/05 19:48:22;;;;;;;16.00;9.95;;;;;;;-145.24;100.00;100080.22;1677360;84;20998;-74
2022/10/05 19:51:00;;;;;;;16.67;9.03;;;;;;;13.63;100.00;100080.22;1674500;84;21523;-76
2022/10/05 19:53:40;;;;;;;13.98;9.15;;;;;;;13.63;100.00;100080.22;1676023;83;21452;-74
2022/10/05 19:57:47;;;;;;;16.00;9.50;;;;;;;13.63;100.00;100080.22;1673502;83;21239;-75
2022/10/05 20:20:39;;;;;;;17.67;10.43;;;;;;;13.63;100.00;100080.22;1629705;87;21022;-74
2022/10/05 20:30:57;;;;;;;10.55;7.58;;;;;;;13.63;100.00;100080.22;1636021;87;21166;-75
2022/10/05 20:33:27;;;;;;;10.98;7.47;;;;;;;13.63;100.00;100080.22;1636155;87;20952;-76
2022/10/05 20:36:08;;;;;;;11.75;7.50;;;;;;;12.44;100.00;100076.23;1635796;87;21612;-76
2022/10/05 20:41:12;;;;;;;8.95;6.12;;;;;;;12.44;100.00;100076.23;1635725;87;21039;-77
2022/10/05 20:51:47;;;;;;;9.58;6.65;;;;;;;-93.79;100.00;100076.23;1635808;87;20959;-74
2022/10/05 20:54:28;;;;;;;10.28;6.08;;;;;;;140.14;100.00;100076.23;1627539;87;21301;-74
2022/10/05 20:59:14;;;;;;;12.58;7.03;;;;;;;140.14;100.00;100076.23;1654193;85;21025;-77
2022/10/05 21:02:23;;;;;;;9.68;6.60;;;;;;;12.44;100.00;100076.23;1681308;85;20926;-78
2022/10/05 21:06:56;;;;;;;12.25;6.75;;;;;;;12.44;100.00;100076.23;1681456;85;20914;-76
2022/10/05 21:11:43;;;;;;;9.85;6.58;;;;;;;12.44;100.00;100076.23;1681519;85;20899;-75
2022/10/05 21:17:00;;;;;;;8.23;6.15;;;;;;;12.44;100.00;100076.23;1681320;85;21757;-74
2022/10/05 21:21:16;;;;;;;14.90;6.37;;;;;;;-146.14;100.00;6972.11;1681317;85;21535;-74
